Time;durP1;ratioP1;P1;durP2;ratioP2;P2;SDS_P1;SDS_P2;PMS_P1;PMS_P2;Temp;Humidity;BMP_temperature;BMP_pressure;BME280_temperature;BME280_humidity;BME280_pressure;Samples;Min_cycle;Max_cycle;Signal;HPM_P1;HPM_P2
2022/12/01 00:00:59;;;;;;;7.72;5.72;;;;;;;4.37;68.58;102132.75;5011541;28;20837;-77
2022/12/01 00:03:25;;;;;;;7.63;5.60;;;;;;;4.42;67.97;102119.34;5007175;28;20651;-76
2022/12/01 00:06:01;;;;;;;7.75;5.00;;;;;;;4.34;68.17;102138.16;5013095;28;20381;-76
2022/12/01 00:08:27;;;;;;;7.88;5.22;;;;;;;4.25;68.53;102136.97;5011226;28;20790;-76
2022/12/01 00:10:53;;;;;;;7.00;5.70;;;;;;;4.30;68.17;102141.94;5011134;28;20498;-76
2022/12/01 00:13:18;;;;;;;7.80;5.87;;;;;;;3.93;69.11;102138.91;5011375;28;20455;-76
2022/12/01 00:15:44;;;;;;;8.93;5.63;;;;;;;4.06;68.94;102126.75;5020542;28;20432;-76
2022/12/01 00:18:09;;;;;;;7.97;5.90;;;;;;;4.20;67.94;102131.16;5012750;28;20506;-76
2022/12/01 00:20:35;;;;;;;6.68;5.22;;;;;;;4.10;67.93;102122.16;5014068;28;20707;-76
2022/12/01 00:23:01;;;;;;;6.70;5.00;;;;;;;4.18;67.63;102133.03;5011217;28;20380;-76
2022/12/01 00:25:27;;;;;;;8.80;5.90;;;;;;;4.27;68.11;102129.00;5010862;28;20388;-76
2022/12/01 00:27:53;;;;;;;7.47;5.60;;;;;;;4.25;67.97;102129.09;5004884;28;20418;-76
2022/12/01 00:30:20;;;;;;;8.27;5.45;;;;;;;4.39;67.52;102138.75;5004024;28;20415;-76
2022/12/01 00:32:47;;;;;;;6.95;5.43;;;;;;;4.21;68.07;102135.47;5010515;28;20380;-76
2022/12/01 00:35:15;;;;;;;8.30;5.28;;;;;;;4.08;68.38;102135.38;5010726;28;20380;-76
2022/12/01 00:37:40;;;;;;;7.22;5.00;;;;;;;4.09;68.36;102128.31;5010397;28;20442;-75
2022/12/01 00:40:07;;;;;;;7.22;5.22;;;;;;;4.03;68.27;102129.53;5010834;28;20384;-76
2022/12/01 00:42:33;;;;;;;8.43;5.88;;;;;;;4.14;68.37;102123.66;5010589;28;20868;-76
2022/12/01 00:44:59;;;;;;;7.70;5.33;;;;;;;4.05;68.08;102126.84;5010397;28;20390;-76
2022/12/01 00:47:24;;;;;;;7.30;5.70;;;;;;;3.88;68.76;102133.09;5022613;28;20371;-77
2022/12/01 00:49:51;;;;;;;8.77;5.80;;;;;;;4.01;68.93;102129.63;5011623;28;20828;-77
2022/12/01 00:52:18;;;;;;;7.43;5.45;;;;;;;4.25;67.97;102133.50;5021578;28;20382;-77
2022/12/01 00:54:43;;;;;;;7.50;5.78;;;;;;;4.30;68.29;102128.81;5012304;28;20867;-76
2022/12/01 00:57:09;;;;;;;8.23;5.78;;;;;;;4.16;68.46;102127.88;5018945;28;20378;-77
2022/12/01 00:59:35;;;;;;;7.38;5.68;;;;;;;4.06;68.71;102133.78;5030067;28;20378;-77
2022/12/01 01:02:04;;;;;;;9.02;5.95;;;;;;;4.17;67.93;102126.94;5021823;28;20374;-77
2022/12/01 01:04:31;;;;;;;7.50;5.70;;;;;;;4.14;68.51;102132.38;5016806;28;20393;-77
2022/12/01 01:06:57;;;;;;;8.93;6.90;;;;;;;4.37;68.01;102130.94;5015852;28;20835;-76
2022/12/01 01:09:23;;;;;;;8.07;6.40;;;;;;;4.35;67.69;102126.75;5018619;28;20426;-77
2022/12/01 01:11:48;;;;;;;7.80;5.95;;;;;;;4.40;68.15;102120.28;5010057;28;20411;-77
2022/12/01 01:14:14;;;;;;;8.75;6.18;;;;;;;4.17;68.73;102132.19;5010343;28;20465;-77
2022/12/01 01:16:40;;;;;;;8.45;6.50;;;;;;;4.43;67.89;102131.50;5023571;28;20386;-76
2022/12/01 01:19:06;;;;;;;9.70;6.65;;;;;;;4.61;67.31;102119.88;5005508;28;20405;-76
2022/12/01 01:21:31;;;;;;;8.68;6.22;;;;;;;4.39;67.76;102112.47;5018940;28;20386;-77
2022/12/01 01:23:57;;;;;;;8.68;6.30;;;;;;;4.37;68.28;102112.56;5012958;28;20755;-77
2022/12/01 01:26:28;;;;;;;9.55;7.03;;;;;;;4.31;68.11;102105.09;5010238;28;20416;-77
2022/12/01 01:28:56;;;;;;;9.88;6.60;;;;;;;4.15;68.70;102105.19;5023307;28;20380;-76
2022/12/01 01:31:24;;;;;;;9.98;6.82;;;;;;;4.08;68.34;102126.66;5010066;28;20404;-77
2022/12/01 01:33:50;;;;;;;10.82;7.22;;;;;;;4.02;68.88;102102.47;5025568;28;20371;-77
2022/12/01 01:36:17;;;;;;;8.75;6.35;;;;;;;4.02;68.60;102099.00;5022046;28;20387;-77
2022/12/01 01:38:43;;;;;;;10.77;7.32;;;;;;;4.06;68.67;102095.25;5028245;28;20763;-76
2022/12/01 01:41:09;;;;;;;11.37;7.33;;;;;;;4.26;68.27;102106.31;5010011;28;20852;-76
2022/12/01 01:44:03;;;;;;;10.50;7.47;;;;;;;3.93;68.83;102103.03;5009311;28;20386;-77
2022/12/01 01:46:33;;;;;;;10.93;7.32;;;;;;;3.87;69.03;102098.16;5009791;28;20923;-76
2022/12/01 01:49:01;;;;;;;10.02;6.88;;;;;;;3.81;68.95;102085.41;5023475;28;20540;-76
2022/12/01 01:51:41;;;;;;;10.82;7.68;;;;;;;4.14;68.73;102097.41;5009403;28;21206;-77
2022/12/01 01:54:16;;;;;;;11.50;7.70;;;;;;;4.10;68.79;102083.63;5023524;28;20382;-77
2022/12/01 01:56:43;;;;;;;10.35;7.50;;;;;;;4.30;68.32;102086.81;5017830;28;20833;-77
2022/12/01 01:59:11;;;;;;;12.55;7.65;;;;;;;4.31;67.84;102093.75;5017416;28;20478;-77
2022/12/01 02:01:37;;;;;;;10.90;7.38;;;;;;;4.18;67.91;102084.00;5013718;28;20453;-77
2022/12/01 02:04:03;;;;;;;11.30;7.30;;;;;;;4.04;68.08;102086.63;5001201;28;20850;-77
2022/12/01 02:06:29;;;;;;;10.07;7.50;;;;;;;3.98;68.92;102085.22;5012440;28;20382;-77
2022/12/01 02:08:55;;;;;;;11.43;8.57;;;;;;;4.13;68.57;102080.00;5013569;28;20475;-77
2022/12/01 02:11:47;;;;;;;40.15;36.40;;;;;;;4.05;69.00;102075.19;5015936;28;20449;-77
2022/12/01 02:14:12;;;;;;;9.23;6.75;;;;;;;3.86;68.76;102079.88;5012043;28;20384;-77
2022/12/01 02:17:11;;;;;;;11.18;8.95;;;;;;;3.99;69.11;102079.03;5013492;28;20394;-77
2022/12/01 02:20:01;;;;;;;9.37;6.80;;;;;;;3.93;68.88;102079.41;5024003;28;20405;-76
2022/12/01 02:22:46;;;;;;;11.00;7.53;;;;;;;4.16;68.53;102072.78;4999840;28;20372;-77
2022/12/01 02:25:40;;;;;;;9.70;6.80;;;;;;;4.18;68.42;102077.94;5014046;28;20487;-77
2022/12/01 02:28:27;;;;;;;11.07;8.27;;;;;;;4.20;67.88;102082.13;5021842;28;20360;-77
2022/12/01 02:31:22;;;;;;;8.80;7.10;;;;;;;3.99;68.97;102068.53;5012936;28;20422;-77
2022/12/01 02:33:55;;;;;;;12.23;8.05;;;;;;;4.18;67.80;102072.69;5014764;28;20380;-76
2022/12/01 02:36:23;;;;;;;10.43;7.40;;;;;;;4.18;67.85;102077.94;5032743;28;20452;-76
2022/12/01 02:39:11;;;;;;;8.85;7.10;;;;;;;3.97;68.72;102069.59;5014177;28;20396;-76
2022/12/01 02:41:47;;;;;;;10.20;7.32;;;;;;;3.77;69.09;102078.66;5012449;28;20431;-77
2022/12/01 02:44:21;;;;;;;10.65;7.63;;;;;;;3.96;68.51;102067.88;5016070;28;20961;-77
2022/12/01 02:46:55;;;;;;;11.88;8.98;;;;;;;4.04;68.24;102078.75;5021757;28;20423;-76
2022/12/01 02:49:33;;;;;;;10.73;7.43;;;;;;;4.14;67.96;102071.16;5030241;28;20379;-77
2022/12/01 02:51:59;;;;;;;12.15;7.55;;;;;;;4.07;68.06;102069.84;5021177;28;20408;-76
2022/12/01 02:54:29;;;;;;;11.50;8.15;;;;;;;4.21;67.50;102065.47;5012263;28;20395;-76
2022/12/01 02:56:55;;;;;;;11.85;7.90;;;;;;;4.12;67.99;102059.91;5012513;28;20384;-76
2022/12/01 02:59:20;;;;;;;11.73;7.90;;;;;;;4.26;67.47;102070.41;5026435;28;20716;-76
2022/12/01 03:02:01;;;;;;;12.85;7.78;;;;;;;4.08;67.95;102061.88;5012428;28;20381;-76
2022/12/01 03:04:38;;;;;;;11.48;8.20;;;;;;;4.28;67.36;102060.66;5030745;28;20382;-76
2022/12/01 03:07:28;;;;;;;9.98;7.68;;;;;;;4.20;67.76;102055.06;5022122;28;20394;-76
2022/12/01 03:10:12;;;;;;;12.15;8.40;;;;;;;4.20;67.97;102060.31;5026693;28;20519;-76
2022/12/01 03:12:57;;;;;;;12.65;8.57;;;;;;;4.18;67.77;102059.56;5003980;28;21088;-77
2022/12/01 03:15:29;;;;;;;12.25;9.32;;;;;;;4.32;67.26;102063.94;5023422;28;21141;-76
2022/12/01 03:18:12;;;;;;;14.32;11.75;;;;;;;4.09;68.07;102060.09;5012444;28;20388;-76
2022/12/01 03:20:52;;;;;;;11.32;8.15;;;;;;;4.24;68.35;102064.41;5016739;28;20434;-77
2022/12/01 03:23:22;;;;;;;13.40;8.45;;;;;;;4.07;68.37;102060.22;5007927;28;20743;-76
2022/12/01 03:25:51;;;;;;;12.27;8.48;;;;;;;4.17;68.06;102068.34;5005838;28;20405;-77
2022/12/01 03:28:22;;;;;;;14.00;8.18;;;;;;;4.00;68.46;102065.00;5005012;28;20380;-76
2022/12/01 03:30:53;;;;;;;12.68;8.73;;;;;;;4.14;67.93;102072.03;5011812;28;20856;-76
2022/12/01 03:33:29;;;;;;;12.05;8.13;;;;;;;4.16;67.59;102071.91;5012093;28;20383;-77
2022/12/01 03:36:03;;;;;;;11.37;8.03;;;;;;;3.99;68.45;102075.56;5010675;28;20380;-76
2022/12/01 03:38:32;;;;;;;10.77;8.13;;;;;;;3.82;68.77;102071.38;5007509;28;20389;-77
2022/12/01 03:41:09;;;;;;;11.80;7.97;;;;;;;4.01;68.69;102076.31;5009496;28;20837;-76
2022/12/01 03:43:41;;;;;;;12.13;8.63;;;;;;;3.99;68.46;102078.19;5010450;28;20467;-77
2022/12/01 03:46:17;;;;;;;13.60;8.80;;;;;;;4.14;67.81;102079.91;5024045;28;20531;-76
2022/12/01 03:48:43;;;;;;;11.90;8.40;;;;;;;4.10;67.79;102067.03;5010731;28;20502;-76
2022/12/01 03:51:15;;;;;;;12.43;8.00;;;;;;;3.94;67.98;102073.25;5024241;28;20404;-76
2022/12/01 03:53:43;;;;;;;12.27;7.78;;;;;;;4.00;67.38;102078.09;5021869;28;20798;-77
2022/12/01 03:56:09;;;;;;;13.27;8.48;;;;;;;3.91;67.89;102073.44;5011845;28;20419;-77
2022/12/01 03:58:44;;;;;;;9.60;7.13;;;;;;;3.93;68.22;102070.72;5011745;28;20483;-77
2022/12/01 04:01:11;;;;;;;13.43;8.10;;;;;;;4.08;67.71;102063.69;5009964;28;20380;-77
2022/12/01 04:03:37;;;;;;;11.15;7.82;;;;;;;3.88;67.81;102076.22;5020609;28;20477;-76
2022/12/01 04:06:03;;;;;;;12.40;7.47;;;;;;;3.83;68.49;102071.28;5016253;28;20474;-77
2022/12/01 04:08:29;;;;;;;10.75;8.10;;;;;;;3.71;68.61;102069.38;5011066;28;20831;-76
2022/12/01 04:10:55;;;;;;;14.02;9.07;;;;;;;3.80;68.55;102083.72;5011061;28;20408;-76
2022/12/01 04:13:22;;;;;;;12.30;8.43;;;;;;;3.98;68.52;102073.88;5010885;28;20383;-76
2022/12/01 04:15:52;;;;;;;12.77;8.35;;;;;;;4.09;67.93;102067.97;5011294;28;20426;-77
2022/12/01 04:18:18;;;;;;;14.05;10.55;;;;;;;4.15;67.78;102078.94;5025038;28;20505;-77
2022/12/01 04:20:45;;;;;;;12.27;8.70;;;;;;;4.42;66.94;102072.91;5010708;28;20740;-77
2022/12/01 04:23:58;;;;;;;11.95;7.95;;;;;;;4.17;67.40;102073.59;5006566;28;20400;-77
2022/12/01 04:26:03;;;;;;;13.27;9.27;;;;;;;4.16;67.46;102079.78;4998450;28;20376;-77
2022/12/01 04:28:29;;;;;;;13.20;8.23;;;;;;;4.06;67.86;102089.16;5011469;28;20395;-77
2022/12/01 04:30:55;;;;;;;12.87;8.30;;;;;;;3.93;68.20;102089.06;4997411;28;20412;-77
2022/12/01 04:33:20;;;;;;;11.63;8.30;;;;;;;4.17;67.27;102099.84;5023141;28;20397;-77
2022/12/01 04:35:55;;;;;;;12.53;8.47;;;;;;;4.33;66.74;102092.72;5012643;28;20434;-77
2022/12/01 04:38:21;;;;;;;12.00;8.18;;;;;;;4.57;66.73;102092.97;5010878;28;20666;-77
2022/12/01 04:40:46;;;;;;;11.90;7.90;;;;;;;4.53;66.57;102088.84;5013547;28;20393;-78
2022/12/01 04:43:11;;;;;;;12.80;9.35;;;;;;;4.63;66.47;102089.13;5021577;28;20398;-77
2022/12/01 04:45:37;;;;;;;10.73;7.23;;;;;;;4.51;66.03;102088.09;5016539;28;20484;-77
2022/12/01 04:48:02;;;;;;;12.00;9.20;;;;;;;4.59;66.12;102095.47;5006441;28;20429;-78
2022/12/01 04:50:29;;;;;;;11.38;7.53;;;;;;;4.49;66.63;102084.72;5017519;28;20475;-78
2022/12/01 04:52:54;;;;;;;10.57;7.40;;;;;;;4.56;66.72;102096.53;5026349;28;20847;-78
2022/12/01 04:55:21;;;;;;;9.87;6.83;;;;;;;4.50;66.15;102093.44;5010550;28;20391;-77
2022/12/01 04:57:46;;;;;;;10.70;7.28;;;;;;;4.45;66.50;102093.75;5007622;28;20506;-77
2022/12/01 05:00:13;;;;;;;10.07;7.05;;;;;;;4.29;66.59;102100.88;5012375;28;20495;-77
2022/12/01 05:02:42;;;;;;;14.03;11.33;;;;;;;4.31;66.43;102094.59;5006773;28;20490;-77
2022/12/01 05:05:11;;;;;;;10.98;7.85;;;;;;;4.29;66.24;102093.84;4995943;28;20390;-77
2022/12/01 05:07:36;;;;;;;10.77;7.93;;;;;;;4.35;65.90;102103.97;5005680;28;20908;-77
2022/12/01 05:10:02;;;;;;;11.48;7.55;;;;;;;4.32;66.14;102096.28;5002681;28;20479;-77
2022/12/01 05:12:28;;;;;;;13.20;9.45;;;;;;;4.45;66.07;102092.88;4997363;28;20463;-76
2022/12/01 05:14:53;;;;;;;18.97;15.50;;;;;;;4.44;66.30;102101.72;5005033;28;20393;-76
2022/12/01 05:17:19;;;;;;;12.63;9.02;;;;;;;4.19;66.67;102090.09;5007295;28;20388;-77
2022/12/01 05:22:28;;;;;;;15.18;12.13;;;;;;;4.37;66.25;102088.13;5015899;28;20413;-77
2022/12/01 05:24:54;;;;;;;13.10;8.90;;;;;;;4.50;66.06;102089.06;5019489;28;20415;-77
2022/12/01 05:27:19;;;;;;;13.73;9.30;;;;;;;4.55;65.66;102094.81;5000672;28;20415;-77
2022/12/01 05:29:45;;;;;;;13.07;9.43;;;;;;;4.39;65.54;102094.09;5007655;28;20527;-77
2022/12/01 05:32:10;;;;;;;13.15;9.02;;;;;;;4.28;66.26;102091.31;5007160;28;20415;-77
2022/12/01 05:34:36;;;;;;;12.68;8.88;;;;;;;4.35;65.88;102093.44;5006981;28;20746;-77
2022/12/01 05:37:01;;;;;;;13.13;8.03;;;;;;;4.26;66.24;102086.16;5004764;28;20431;-77
2022/12/01 05:39:27;;;;;;;15.87;9.60;;;;;;;4.29;66.50;102095.63;5008633;28;20780;-77
2022/12/01 05:41:52;;;;;;;12.70;8.38;;;;;;;4.34;66.11;102083.03;5007672;28;20438;-76
2022/12/01 05:44:18;;;;;;;13.77;9.48;;;;;;;4.41;65.54;102081.72;5008811;28;20388;-76
2022/12/01 05:46:44;;;;;;;13.55;9.57;;;;;;;4.54;65.44;102084.44;5007174;28;20412;-76
2022/12/01 05:49:09;;;;;;;13.00;9.25;;;;;;;4.58;65.23;102086.75;5009099;28;20390;-78
2022/12/01 05:51:35;;;;;;;13.97;9.40;;;;;;;4.38;65.54;102090.66;5007381;28;20408;-77
2022/12/01 05:54:00;;;;;;;15.83;10.03;;;;;;;4.09;66.65;102087.22;5005217;28;20392;-78
2022/12/01 05:56:26;;;;;;;14.83;9.80;;;;;;;4.06;66.53;102097.03;5004923;28;20392;-78
2022/12/01 05:58:52;;;;;;;14.55;9.85;;;;;;;4.08;66.83;102103.03;4996728;28;20480;-78
2022/12/01 06:01:17;;;;;;;14.73;10.13;;;;;;;4.04;66.79;102098.91;5006972;28;20377;-77
2022/12/01 06:03:43;;;;;;;14.88;10.85;;;;;;;4.17;66.64;102098.06;5010964;28;20403;-77
2022/12/01 06:06:08;;;;;;;17.10;10.60;;;;;;;4.31;65.91;102094.59;5007500;28;20388;-77
2022/12/01 06:08:33;;;;;;;17.23;10.37;;;;;;;4.16;66.39;102090.28;4999963;28;20388;-77
2022/12/01 06:10:59;;;;;;;18.70;10.67;;;;;;;3.96;67.21;102099.38;4999688;28;20843;-78
2022/12/01 06:13:25;;;;;;;18.52;12.38;;;;;;;4.26;66.75;102101.91;5010094;28;20464;-77
2022/12/01 06:15:58;;;;;;;15.80;11.10;;;;;;;4.25;66.29;102096.75;5004975;28;20420;-78
2022/12/01 06:18:25;;;;;;;17.42;11.82;;;;;;;4.29;66.10;102098.25;5018661;28;20474;-78
2022/12/01 06:20:51;;;;;;;16.98;10.75;;;;;;;4.25;66.17;102105.47;5003312;28;20779;-77
2022/12/01 06:23:16;;;;;;;16.10;10.80;;;;;;;4.20;66.67;102097.88;5009032;28;20956;-77
2022/12/01 06:25:42;;;;;;;16.03;10.43;;;;;;;4.23;66.06;102102.09;5010132;28;20448;-78
2022/12/01 06:28:08;;;;;;;15.52;9.85;;;;;;;4.13;66.45;102100.97;5010660;28;20394;-79
2022/12/01 06:30:33;;;;;;;19.07;11.40;;;;;;;4.07;66.53;102102.19;5008707;28;20407;-80
2022/12/01 06:32:59;;;;;;;20.07;11.80;;;;;;;4.13;66.50;102109.69;5023363;28;20389;-78
2022/12/01 06:35:24;;;;;;;18.77;12.03;;;;;;;4.33;66.31;102110.25;5025086;28;20933;-78
2022/12/01 06:37:53;;;;;;;16.95;11.60;;;;;;;4.31;65.89;102105.09;5024865;28;20398;-78
2022/12/01 06:40:18;;;;;;;19.05;11.73;;;;;;;4.19;66.00;102113.72;5020229;28;20385;-78
2022/12/01 06:42:44;;;;;;;20.00;11.93;;;;;;;4.19;66.61;102100.59;5009429;28;20495;-78
2022/12/01 06:45:10;;;;;;;15.93;10.73;;;;;;;4.18;66.09;102107.63;5004455;28;20406;-78
2022/12/01 06:47:35;;;;;;;15.88;10.68;;;;;;;4.28;66.12;102115.78;5009880;28;20384;-78
2022/12/01 06:50:02;;;;;;;14.30;9.83;;;;;;;4.26;66.39;102109.78;5009224;28;20399;-78
2022/12/01 06:52:27;;;;;;;16.38;10.65;;;;;;;4.30;66.20;102107.81;5008892;28;20411;-78
2022/12/01 06:54:53;;;;;;;15.03;9.77;;;;;;;4.29;66.26;102114.00;5011070;28;20388;-78
2022/12/01 06:57:18;;;;;;;14.03;9.90;;;;;;;4.39;65.91;102115.97;5014515;28;20416;-78
2022/12/01 06:59:44;;;;;;;18.83;11.73;;;;;;;4.57;64.99;102110.50;5012099;28;20400;-75
2022/12/01 07:02:10;;;;;;;15.20;9.73;;;;;;;4.43;65.04;102107.88;5001600;28;20378;-78
2022/12/01 07:04:35;;;;;;;15.52;10.55;;;;;;;4.46;65.63;102107.72;5005697;28;20403;-78
2022/12/01 07:07:02;;;;;;;14.63;11.03;;;;;;;4.48;65.52;102111.91;5011384;28;20864;-76
2022/12/01 07:09:28;;;;;;;15.70;10.77;;;;;;;4.50;65.21;102104.81;5032365;28;20963;-78
2022/12/01 07:11:53;;;;;;;14.97;9.83;;;;;;;4.42;65.17;102101.81;5021637;28;20414;-78
2022/12/01 07:14:22;;;;;;;15.40;9.93;;;;;;;4.42;64.94;102112.31;5028637;28;20394;-78
2022/12/01 07:16:48;;;;;;;16.95;10.25;;;;;;;4.40;65.07;102109.78;5015926;28;20399;-78
2022/12/01 07:19:13;;;;;;;17.70;10.53;;;;;;;4.53;64.95;102119.50;5008968;28;20378;-78
2022/12/01 07:21:39;;;;;;;15.67;10.70;;;;;;;4.34;65.28;102110.16;5013327;28;20798;-78
2022/12/01 07:24:05;;;;;;;17.27;10.93;;;;;;;4.40;65.58;102112.41;5007136;28;20890;-77
2022/12/01 07:26:30;;;;;;;20.05;11.85;;;;;;;4.33;65.52;102120.75;5011910;28;20396;-78
2022/12/01 07:28:56;;;;;;;26.33;20.52;;;;;;;4.40;65.59;102128.16;5010415;28;20876;-78
2022/12/01 07:31:21;;;;;;;18.17;11.07;;;;;;;4.45;65.50;102127.88;5007572;28;20930;-78
2022/12/01 07:33:47;;;;;;;16.13;9.63;;;;;;;4.24;65.25;102124.78;5005756;28;20398;-77
2022/12/01 07:36:13;;;;;;;18.30;11.27;;;;;;;4.11;65.69;102127.31;5003329;28;20476;-78
2022/12/01 07:38:39;;;;;;;18.33;10.73;;;;;;;4.30;65.33;102127.00;5010873;28;20942;-77
2022/12/01 07:41:07;;;;;;;17.38;10.85;;;;;;;4.29;65.41;102117.47;5018702;28;20388;-79
2022/12/01 07:43:33;;;;;;;17.95;11.52;;;;;;;4.30;65.56;102128.81;5004391;28;20494;-79
2022/12/01 07:46:19;;;;;;;21.42;12.65;;;;;;;4.44;65.32;102120.94;5007341;28;20470;-77
2022/12/01 07:48:44;;;;;;;20.33;13.20;;;;;;;4.35;65.06;102119.72;5009626;28;20524;-77
2022/12/01 07:51:13;;;;;;;19.00;12.27;;;;;;;4.30;65.50;102113.88;5012234;28;20487;-78
2022/12/01 07:53:39;;;;;;;19.98;12.50;;;;;;;4.40;65.47;102127.31;5014526;28;20394;-78
2022/12/01 07:56:05;;;;;;;19.60;12.17;;;;;;;4.33;65.40;102118.97;5013755;28;20387;-78
2022/12/01 07:58:31;;;;;;;19.48;12.00;;;;;;;4.40;65.63;102116.81;5026652;28;20393;-77
2022/12/01 08:00:57;;;;;;;19.63;12.02;;;;;;;4.27;65.92;102111.47;5029179;28;20382;-77
2022/12/01 08:03:23;;;;;;;19.93;12.17;;;;;;;4.36;66.11;102116.16;5029697;28;20395;-77
2022/12/01 08:05:57;;;;;;;18.00;10.97;;;;;;;4.47;65.32;102115.50;5028719;28;20383;-77
2022/12/01 08:08:25;;;;;;;20.10;12.33;;;;;;;4.50;65.09;102115.31;5028629;28;21045;-77
2022/12/01 08:10:52;;;;;;;17.92;11.02;;;;;;;4.56;65.18;102106.19;5029554;28;20824;-77
2022/12/01 08:13:18;;;;;;;17.13;10.80;;;;;;;4.58;65.19;102115.66;5026753;28;21015;-78
2022/12/01 08:15:44;;;;;;;17.70;11.00;;;;;;;4.53;65.46;102109.84;5028135;28;20375;-78
2022/12/01 08:18:10;;;;;;;16.70;10.68;;;;;;;4.42;65.88;102108.84;5027717;28;20451;-78
2022/12/01 08:20:35;;;;;;;15.82;11.02;;;;;;;4.39;65.70;102113.34;5013324;28;20416;-78
2022/12/01 08:23:01;;;;;;;18.92;12.25;;;;;;;4.35;66.09;102111.00;5014567;28;20478;-77
2022/12/01 08:25:27;;;;;;;20.38;11.68;;;;;;;4.44;66.10;102115.66;5006542;28;20383;-78
2022/12/01 08:27:53;;;;;;;21.13;12.20;;;;;;;4.32;66.40;102105.94;5012756;28;20412;-77
2022/12/01 08:30:19;;;;;;;19.07;11.70;;;;;;;4.23;66.23;102104.72;5011434;28;20443;-77
2022/12/01 08:32:44;;;;;;;19.20;12.10;;;;;;;4.30;66.18;102113.88;5018851;28;20384;-76
2022/12/01 08:35:10;;;;;;;20.73;11.87;;;;;;;4.34;66.12;102114.53;5013628;28;20382;-75
2022/12/01 08:37:35;;;;;;;20.33;12.10;;;;;;;4.31;66.06;102107.72;5011945;28;20535;-77
2022/12/01 08:40:01;;;;;;;19.27;11.17;;;;;;;4.39;65.87;102108.09;5020029;28;20451;-76
2022/12/01 08:42:26;;;;;;;18.20;11.43;;;;;;;4.64;65.10;102110.97;5027792;28;20469;-76
2022/12/01 08:44:51;;;;;;;23.63;14.50;;;;;;;4.73;64.73;102113.84;5011303;28;20543;-77
2022/12/01 08:47:17;;;;;;;19.15;11.73;;;;;;;4.40;65.27;102114.19;5012166;28;20396;-76
2022/12/01 08:49:43;;;;;;;20.70;12.10;;;;;;;4.42;65.70;102112.31;5012102;28;20402;-76
2022/12/01 08:52:10;;;;;;;19.75;11.65;;;;;;;4.17;66.01;102103.31;5018329;28;20516;-76
2022/12/01 08:54:36;;;;;;;19.53;12.43;;;;;;;4.26;66.45;102107.16;5018719;28;20901;-76
2022/12/01 08:57:01;;;;;;;19.47;11.53;;;;;;;4.31;66.22;102112.13;5020583;28;20770;-77
2022/12/01 08:59:27;;;;;;;19.38;11.85;;;;;;;4.54;65.80;102101.03;5010415;28;20380;-77
2022/12/01 09:01:52;;;;;;;17.10;10.53;;;;;;;4.42;68.41;102104.44;5011721;28;21342;-78
2022/12/01 09:04:26;;;;;;;20.97;11.77;;;;;;;4.97;69.18;102100.94;5011957;28;20391;-79
2022/12/01 09:06:54;;;;;;;18.60;10.90;;;;;;;5.35;68.32;102102.84;5011429;28;20837;-77
2022/12/01 09:09:25;;;;;;;16.40;10.80;;;;;;;5.62;66.99;102096.69;5011350;28;20418;-78
2022/12/01 09:11:51;;;;;;;17.50;10.93;;;;;;;5.77;66.32;102100.06;5010437;28;20422;-76
2022/12/01 09:14:18;;;;;;;16.90;10.85;;;;;;;4.96;64.63;102104.50;5020901;28;20470;-77
2022/12/01 09:16:45;;;;;;;18.85;11.40;;;;;;;5.01;64.41;102098.94;5011020;28;20388;-75
2022/12/01 09:19:12;;;;;;;18.13;11.82;;;;;;;5.00;64.50;102099.88;5010852;28;20438;-77
2022/12/01 09:21:38;;;;;;;20.42;12.20;;;;;;;4.80;64.10;102101.16;5010862;28;20853;-77
2022/12/01 09:24:05;;;;;;;19.90;12.07;;;;;;;4.61;64.33;102088.38;5010806;28;20449;-76
2022/12/01 09:26:32;;;;;;;18.38;11.00;;;;;;;4.45;64.55;102088.50;5010905;28;20860;-76
2022/12/01 09:29:00;;;;;;;18.83;10.98;;;;;;;4.59;65.11;102093.72;5010255;28;20427;-76
2022/12/01 09:31:26;;;;;;;17.83;11.25;;;;;;;4.67;64.72;102101.09;5010314;28;20895;-77
2022/12/01 09:34:00;;;;;;;18.80;12.00;;;;;;;4.53;64.82;102093.25;5010564;28;20388;-77
2022/12/01 09:36:27;;;;;;;17.92;11.15;;;;;;;4.44;65.29;102083.34;5010693;28;20515;-76
2022/12/01 09:38:53;;;;;;;19.20;11.55;;;;;;;4.55;65.31;102094.81;5010719;28;20440;-78
2022/12/01 09:41:52;;;;;;;17.50;10.77;;;;;;;4.25;66.17;102089.72;5026576;28;20388;-77
2022/12/01 09:44:35;;;;;;;17.73;11.40;;;;;;;4.17;66.45;102079.69;5010126;28;20446;-77
2022/12/01 09:47:33;;;;;;;21.27;12.20;;;;;;;4.38;66.34;102095.06;5007700;28;20428;-76
2022/12/01 09:50:05;;;;;;;18.77;10.80;;;;;;;4.51;65.72;102079.38;5011803;28;20403;-77
2022/12/01 09:52:41;;;;;;;19.30;11.73;;;;;;;4.50;66.12;102080.31;5015743;28;20399;-77
2022/12/01 09:55:15;;;;;;;19.88;10.82;;;;;;;4.39;65.65;102075.72;5016783;28;20399;-77
2022/12/01 09:57:45;;;;;;;16.70;11.35;;;;;;;4.30;65.82;102079.78;5015872;28;20396;-76
2022/12/01 10:00:15;;;;;;;17.95;10.90;;;;;;;4.52;65.71;102076.66;5015700;28;20891;-77
2022/12/01 10:03:01;;;;;;;18.52;11.32;;;;;;;4.37;66.04;102072.38;5011080;28;20450;-76
2022/12/01 10:05:37;;;;;;;18.08;11.70;;;;;;;4.56;65.22;102072.91;5002161;28;20377;-77
2022/12/01 10:08:07;;;;;;;20.47;11.50;;;;;;;4.60;65.02;102082.25;5011734;28;20400;-76
2022/12/01 10:10:39;;;;;;;17.05;10.65;;;;;;;4.55;65.18;102071.19;5010297;28;20478;-78
2022/12/01 10:13:16;;;;;;;19.15;11.73;;;;;;;4.63;65.21;102064.63;5010307;28;20407;-78
2022/12/01 10:16:08;;;;;;;19.23;12.20;;;;;;;4.63;64.92;102067.25;5003568;28;20410;-79
2022/12/01 10:18:46;;;;;;;21.10;12.88;;;;;;;4.52;65.26;102070.53;5007922;28;20403;-76
2022/12/01 10:21:48;;;;;;;18.88;11.55;;;;;;;4.49;65.71;102061.09;5034147;28;20385;-76
2022/12/01 10:24:34;;;;;;;18.67;11.13;;;;;;;4.37;65.66;102061.84;5021235;28;20375;-76
2022/12/01 10:27:31;;;;;;;18.75;10.15;;;;;;;4.24;65.88;102061.78;5018930;28;20427;-75
2022/12/01 10:30:05;;;;;;;15.88;9.93;;;;;;;4.03;66.58;102063.94;5033334;28;20397;-76
2022/12/01 10:32:55;;;;;;;28.27;22.13;;;;;;;4.17;66.14;102061.31;5033582;28;20402;-77
2022/12/01 10:35:23;;;;;;;17.98;10.65;;;;;;;4.01;66.41;102053.53;5019352;28;20387;-76
2022/12/01 10:38:01;;;;;;;16.55;10.27;;;;;;;4.01;66.35;102058.78;5014008;28;20479;-75
2022/12/01 10:40:27;;;;;;;17.90;9.82;;;;;;;4.08;66.09;102050.56;5013598;28;20376;-78
2022/12/01 10:42:54;;;;;;;16.33;10.17;;;;;;;4.04;66.70;102055.16;5020612;28;20404;-76
2022/12/01 10:45:28;;;;;;;15.73;10.30;;;;;;;4.20;66.42;102049.81;5021004;28;20408;-77
2022/12/01 10:48:14;;;;;;;15.32;9.98;;;;;;;4.32;65.63;102053.44;5019192;28;20847;-76
2022/12/01 10:50:40;;;;;;;14.80;10.05;;;;;;;4.37;64.99;102052.19;5032964;28;20411;-77
2022/12/01 10:53:05;;;;;;;14.77;9.77;;;;;;;4.25;65.83;102057.38;5019974;28;20481;-77
2022/12/01 10:55:37;;;;;;;16.13;10.63;;;;;;;4.32;65.79;102037.69;5020702;28;20557;-77
2022/12/01 10:58:13;;;;;;;17.98;14.75;;;;;;;4.42;65.37;102036.16;5027221;28;20380;-77
2022/12/01 11:00:41;;;;;;;17.10;9.57;;;;;;;4.03;66.47;102040.34;5013864;28;20479;-77
2022/12/01 11:03:18;;;;;;;15.57;9.18;;;;;;;3.99;66.48;102033.59;5013528;28;20387;-76
2022/12/01 11:05:51;;;;;;;15.70;9.43;;;;;;;3.81;66.92;102036.41;5013777;28;20390;-76
2022/12/01 11:08:45;;;;;;;15.70;10.32;;;;;;;4.03;67.21;102035.09;5012200;28;20392;-77
2022/12/01 11:11:33;;;;;;;20.83;10.30;;;;;;;3.99;66.78;102039.69;5025604;28;20906;-77
2022/12/01 11:14:05;;;;;;;17.40;10.03;;;;;;;4.04;66.66;102028.91;5013364;28;20738;-76
2022/12/01 11:16:37;;;;;;;16.05;9.75;;;;;;;4.06;66.65;102021.78;5013266;28;20380;-78
2022/12/01 11:19:18;;;;;;;17.55;10.75;;;;;;;3.94;66.92;102038.28;5013128;28;20467;-76
2022/12/01 11:21:57;;;;;;;19.15;10.82;;;;;;;3.89;67.48;102038.56;5013119;28;20376;-77
2022/12/01 11:24:27;;;;;;;13.13;8.87;;;;;;;3.64;68.17;102026.09;5012846;28;20376;-76
2022/12/01 11:26:56;;;;;;;15.25;9.95;;;;;;;3.83;67.29;102023.19;5013676;28;20880;-77
2022/12/01 11:29:34;;;;;;;16.23;9.70;;;;;;;3.73;67.23;102033.41;5015846;28;20376;-77
2022/12/01 11:32:01;;;;;;;16.27;9.80;;;;;;;3.70;67.86;102035.38;5026892;28;20469;-77
2022/12/01 11:34:33;;;;;;;17.30;10.95;;;;;;;3.64;68.02;102020.88;5020182;28;20437;-77
2022/12/01 11:37:05;;;;;;;15.48;9.25;;;;;;;3.61;68.00;102037.59;5019291;28;20414;-78
2022/12/01 11:39:32;;;;;;;17.25;10.52;;;;;;;3.81;67.23;102025.06;5012464;28;20380;-78